createdAt,value
2023-03-17T00:00:04.218Z,66.46
2023-03-17T00:02:59.777Z,66.81
2023-03-17T00:05:45.841Z,66.36
2023-03-17T00:08:35.969Z,66.87
2023-03-17T00:11:21.705Z,66.95
2023-03-17T00:14:07.040Z,66.98
2023-03-17T00:16:53.276Z,67.57
2023-03-17T00:19:38.667Z,67.18
2023-03-17T00:22:24.202Z,67.66
2023-03-17T00:25:25.604Z,67.92
2023-03-17T00:28:25.508Z,66.87
2023-03-17T00:31:23.560Z,66.59
2023-03-17T00:34:16.789Z,66.06
2023-03-17T00:37:02.294Z,66.25
2023-03-17T00:39:47.714Z,66.31
2023-03-17T00:42:33.661Z,66.35
2023-03-17T00:45:21.331Z,66.58
2023-03-17T00:48:16.047Z,66.46
2023-03-17T00:51:01.946Z,67.22
2023-03-17T00:53:48.137Z,67.21
2023-03-17T00:56:33.424Z,67.71
2023-03-17T00:59:24.352Z,68.48
2023-03-17T01:02:13.931Z,68.22
2023-03-17T01:05:06.325Z,68.14
2023-03-17T01:07:57.449Z,69.26
2023-03-17T01:10:42.849Z,69.04
2023-03-17T01:13:29.402Z,69.88
2023-03-17T01:16:15.766Z,69.21
2023-03-17T01:19:01.544Z,69.28
2023-03-17T01:21:48.101Z,69.16
2023-03-17T01:24:33.702Z,68.96
2023-03-17T01:27:19.495Z,68.55
2023-03-17T01:30:07.034Z,68.21
2023-03-17T01:32:53.313Z,68.19
2023-03-17T01:35:39.356Z,68.43
2023-03-17T01:38:24.852Z,68.64
2023-03-17T01:41:10.506Z,68.09
2023-03-17T01:43:56.013Z,68.95
2023-03-17T01:46:41.461Z,68.89
2023-03-17T01:49:35.700Z,68.91
2023-03-17T01:52:23.213Z,68.76
2023-03-17T01:55:17.418Z,68.92
2023-03-17T01:58:03.338Z,68.99
2023-03-17T02:00:50.271Z,68.51
2023-03-17T02:03:35.772Z,68.55
2023-03-17T02:06:22.176Z,68.52
2023-03-17T02:09:07.999Z,68.20
2023-03-17T02:11:55.643Z,68.54
2023-03-17T02:14:41.674Z,68.57
2023-03-17T02:17:28.573Z,68.68
2023-03-17T02:20:17.237Z,68.58
2023-03-17T02:23:04.343Z,68.51
2023-03-17T02:25:52.640Z,68.26
2023-03-17T02:28:39.584Z,67.64
2023-03-17T02:31:27.191Z,67.92
2023-03-17T02:34:13.054Z,67.59
2023-03-17T02:36:59.158Z,67.71
2023-03-17T02:39:44.741Z,67.87
2023-03-17T02:42:30.649Z,68.03
2023-03-17T02:45:18.039Z,67.94
2023-03-17T02:48:05.432Z,67.86
2023-03-17T02:50:50.867Z,68.55
2023-03-17T02:53:36.686Z,68.80
2023-03-17T02:56:22.502Z,68.52
2023-03-17T02:59:08.592Z,68.64
2023-03-17T03:01:56.204Z,68.81
2023-03-17T03:04:43.130Z,68.82
2023-03-17T03:07:29.172Z,68.93
2023-03-17T03:10:14.652Z,68.31
2023-03-17T03:13:00.013Z,68.79
2023-03-17T03:15:45.468Z,68.49
2023-03-17T03:18:30.994Z,68.72
2023-03-17T03:21:16.408Z,68.62
2023-03-17T03:24:02.255Z,68.32
2023-03-17T03:26:48.337Z,67.88
2023-03-17T03:29:33.721Z,68.43
2023-03-17T03:32:19.099Z,68.45
2023-03-17T03:35:04.796Z,67.66
2023-03-17T03:37:50.640Z,68.03
2023-03-17T03:40:36.972Z,68.16
2023-03-17T03:43:24.026Z,67.16
2023-03-17T03:46:09.782Z,67.26
2023-03-17T03:48:55.434Z,67.02
2023-03-17T03:51:41.665Z,66.56
2023-03-17T03:54:27.417Z,67.34
2023-03-17T03:57:13.501Z,66.72
2023-03-17T03:59:59.098Z,66.77
2023-03-17T04:02:47.277Z,66.69
2023-03-17T04:05:33.254Z,66.87
2023-03-17T04:08:18.834Z,65.98
2023-03-17T04:11:04.354Z,66.20
2023-03-17T04:13:49.709Z,66.44
2023-03-17T04:16:35.274Z,66.09
2023-03-17T04:19:21.636Z,66.54
2023-03-17T04:22:09.120Z,66.23
2023-03-17T04:24:55.163Z,66.79
2023-03-17T04:27:44.663Z,67.52
2023-03-17T04:30:30.289Z,66.90
2023-03-17T04:33:16.894Z,67.26
2023-03-17T04:36:04.077Z,67.16
2023-03-17T04:38:49.711Z,66.79
2023-03-17T04:41:35.333Z,67.18
2023-03-17T04:44:20.669Z,67.95
2023-03-17T04:47:06.383Z,67.78
2023-03-17T04:49:51.747Z,67.42
2023-03-17T04:52:37.854Z,67.76
2023-03-17T04:55:23.494Z,68.18
2023-03-17T04:58:10.388Z,68.03
2023-03-17T05:00:59.424Z,68.78
2023-03-17T05:03:45.558Z,67.88
2023-03-17T05:06:31.478Z,67.56
2023-03-17T05:09:16.983Z,66.99
2023-03-17T05:12:02.727Z,67.46
2023-03-17T05:14:48.142Z,66.71
2023-03-17T05:17:33.861Z,67.04
2023-03-17T05:20:19.965Z,66.87
2023-03-17T05:23:05.572Z,66.99
2023-03-17T05:25:51.098Z,66.32
2023-03-17T05:28:36.720Z,65.83
2023-03-17T05:31:22.944Z,65.71
2023-03-17T05:34:08.697Z,65.43
2023-03-17T05:36:54.418Z,65.13
2023-03-17T05:39:40.433Z,64.85
2023-03-17T05:42:26.345Z,64.27
2023-03-17T05:45:12.419Z,64.05
2023-03-17T05:47:57.998Z,63.98
2023-03-17T05:50:43.578Z,63.39
2023-03-17T05:53:31.256Z,63.36
2023-03-17T05:56:16.838Z,62.62
2023-03-17T05:59:02.374Z,62.23
2023-03-17T06:01:47.878Z,61.98
2023-03-17T06:04:33.632Z,61.76
2023-03-17T06:07:20.295Z,61.37
2023-03-17T06:10:06.914Z,61.12
2023-03-17T06:12:52.887Z,60.62
2023-03-17T06:15:38.400Z,60.15
2023-03-17T06:18:23.956Z,59.64
2023-03-17T06:21:09.982Z,59.11
2023-03-17T06:23:55.793Z,58.18
2023-03-17T06:26:41.326Z,57.89
2023-03-17T06:29:28.994Z,57.02
2023-03-17T06:32:20.684Z,56.98
2023-03-17T06:35:07.384Z,56.63
2023-03-17T06:37:52.820Z,56.58
2023-03-17T06:40:38.424Z,56.54
2023-03-17T06:43:25.020Z,56.29
2023-03-17T06:46:10.699Z,56.22
2023-03-17T06:48:56.567Z,56.05
2023-03-17T06:51:41.913Z,56.34
2023-03-17T06:54:27.666Z,55.92
2023-03-17T06:57:13.115Z,55.69
2023-03-17T06:59:58.787Z,55.86
2023-03-17T07:02:44.488Z,55.38
2023-03-17T07:05:30.172Z,54.96
2023-03-17T07:08:16.124Z,55.25
2023-03-17T07:11:04.238Z,55.36
2023-03-17T07:13:51.015Z,55.84
2023-03-17T07:16:37.664Z,55.86
2023-03-17T07:19:23.441Z,55.50
2023-03-17T07:22:12.592Z,55.08
2023-03-17T07:24:58.073Z,55.69
2023-03-17T07:27:43.523Z,55.10
2023-03-17T07:30:28.839Z,54.45
2023-03-17T07:33:14.986Z,54.36
2023-03-17T07:36:00.417Z,54.53
2023-03-17T07:38:46.708Z,54.22
2023-03-17T07:41:32.398Z,54.39
2023-03-17T07:44:18.008Z,53.98
2023-03-17T07:47:03.478Z,54.03
2023-03-17T07:53:14.825Z,53.71
2023-03-17T07:56:09.679Z,54.61
2023-03-17T07:58:57.250Z,54.35
2023-03-17T08:01:43.004Z,54.36
2023-03-17T08:04:29.501Z,54.13
2023-03-17T08:07:16.511Z,53.81
2023-03-17T08:10:03.232Z,53.70
2023-03-17T08:12:57.685Z,53.56
2023-03-17T08:15:52.024Z,52.87
2023-03-17T08:19:01.479Z,52.66
2023-03-17T08:22:05.944Z,51.35
2023-03-17T08:24:51.445Z,50.48
2023-03-17T08:27:37.565Z,49.63
2023-03-17T08:30:23.349Z,48.18
2023-03-17T08:33:11.915Z,47.86
2023-03-17T08:35:57.807Z,46.20
2023-03-17T08:38:45.018Z,47.95
2023-03-17T08:41:31.713Z,48.18
2023-03-17T08:44:17.202Z,47.41
2023-03-17T08:47:03.047Z,44.19
2023-03-17T08:49:48.515Z,44.62
2023-03-17T08:52:34.964Z,42.59
2023-03-17T08:55:21.541Z,42.56
2023-03-17T08:58:07.279Z,42.82
2023-03-17T09:00:53.874Z,42.86
2023-03-17T09:03:41.242Z,42.89
2023-03-17T09:06:27.790Z,42.72
2023-03-17T09:09:12.935Z,40.86
2023-03-17T09:11:58.730Z,41.50
2023-03-17T09:14:45.250Z,43.31
2023-03-17T09:17:31.261Z,43.25
2023-03-17T09:20:16.980Z,44.32
2023-03-17T09:23:08.024Z,44.49
2023-03-17T09:25:53.697Z,43.79
2023-03-17T09:28:39.620Z,44.29
2023-03-17T09:31:25.244Z,44.87
2023-03-17T09:34:11.047Z,44.05
2023-03-17T09:36:56.982Z,43.61
2023-03-17T09:39:42.672Z,42.54
2023-03-17T09:43:03.696Z,42.58
2023-03-17T09:45:49.405Z,41.55
2023-03-17T09:49:18.388Z,42.32
2023-03-17T09:52:04.543Z,42.34
2023-03-17T09:54:50.441Z,42.92
2023-03-17T09:57:38.176Z,41.65
2023-03-17T10:00:26.823Z,42.87
2023-03-17T10:03:13.425Z,41.58
2023-03-17T10:06:33.569Z,42.01
2023-03-17T10:09:35.455Z,40.29
2023-03-17T10:12:29.772Z,39.82
2023-03-17T10:15:50.972Z,40.05
2023-03-17T10:18:46.887Z,39.76
2023-03-17T10:21:35.263Z,39.12
2023-03-17T10:24:23.247Z,40.30
2023-03-17T10:27:13.783Z,39.95
2023-03-17T10:29:59.411Z,38.77
2023-03-17T10:32:46.627Z,39.13
2023-03-17T10:35:36.226Z,39.35
2023-03-17T10:38:22.966Z,37.13
2023-03-17T10:41:13.651Z,38.08
2023-03-17T10:43:59.548Z,37.39
2023-03-17T10:46:54.481Z,35.74
2023-03-17T10:49:40.141Z,37.45
2023-03-17T10:52:28.675Z,39.67
2023-03-17T10:55:18.093Z,39.41
2023-03-17T10:58:07.722Z,39.97
2023-03-17T11:01:08.551Z,38.15
2023-03-17T11:03:54.686Z,39.04
2023-03-17T11:06:44.250Z,38.66
2023-03-17T11:09:35.123Z,35.92
2023-03-17T11:12:40.103Z,38.55
2023-03-17T11:15:34.025Z,39.01
2023-03-17T11:18:23.697Z,38.60
2023-03-17T11:21:21.725Z,37.05
2023-03-17T11:24:19.575Z,36.33
2023-03-17T11:27:43.503Z,36.96
2023-03-17T11:30:33.163Z,37.38
2023-03-17T11:33:49.991Z,36.44
2023-03-17T11:36:38.408Z,37.07
2023-03-17T11:39:27.396Z,37.33
2023-03-17T11:42:18.605Z,36.33
2023-03-17T11:45:30.993Z,36.20
2023-03-17T11:48:35.018Z,37.05
2023-03-17T11:51:54.876Z,38.62
2023-03-17T11:54:50.757Z,37.15
2023-03-17T11:57:53.600Z,36.33
2023-03-17T12:00:45.582Z,35.70
2023-03-17T12:03:38.849Z,35.94
2023-03-17T12:06:30.593Z,36.95
2023-03-17T12:09:33.148Z,36.52
2023-03-17T12:12:28.364Z,36.02
2023-03-17T12:15:29.520Z,37.36
2023-03-17T12:18:23.702Z,37.33
2023-03-17T12:21:20.647Z,36.58
2023-03-17T12:24:17.338Z,36.65
2023-03-17T12:27:14.072Z,37.16
2023-03-17T12:30:08.110Z,37.36
2023-03-17T12:33:12.201Z,37.97
2023-03-17T12:36:01.299Z,38.16
2023-03-17T12:39:01.828Z,38.44
2023-03-17T12:41:53.618Z,38.28
2023-03-17T12:44:45.686Z,38.69
2023-03-17T12:47:44.262Z,39.94
2023-03-17T12:50:29.852Z,37.36
2023-03-17T12:53:28.470Z,38.56
2023-03-17T12:56:27.598Z,37.27
2023-03-17T12:59:26.087Z,38.62
2023-03-17T13:02:32.409Z,38.31
2023-03-17T13:05:28.760Z,38.14
2023-03-17T13:08:23.426Z,38.95
2023-03-17T13:11:36.773Z,39.20
2023-03-17T13:14:44.612Z,37.25
2023-03-17T13:17:33.151Z,38.34
2023-03-17T13:20:20.770Z,38.39
2023-03-17T13:23:15.086Z,37.64
2023-03-17T13:26:00.806Z,38.36
2023-03-17T13:28:49.243Z,37.97
2023-03-17T13:31:37.792Z,37.44
2023-03-17T13:34:23.588Z,37.68
2023-03-17T13:37:43.075Z,36.95
2023-03-17T13:40:52.614Z,37.22
2023-03-17T13:44:23.035Z,38.09
2023-03-17T13:47:17.388Z,37.27
2023-03-17T13:50:25.413Z,38.01
2023-03-17T13:53:15.783Z,37.82
2023-03-17T13:56:12.052Z,37.71
2023-03-17T13:59:05.292Z,37.61
2023-03-17T14:02:03.338Z,36.51
2023-03-17T14:04:56.520Z,36.50
2023-03-17T14:07:53.475Z,36.73
2023-03-17T14:10:44.537Z,37.11
2023-03-17T14:13:42.096Z,36.92
2023-03-17T14:16:35.063Z,37.24
2023-03-17T14:19:27.029Z,37.44
2023-03-17T14:22:24.677Z,37.03
2023-03-17T14:25:19.240Z,36.97
2023-03-17T14:28:11.139Z,37.58
2023-03-17T14:31:08.115Z,36.27
2023-03-17T14:34:01.291Z,36.35
2023-03-17T14:36:47.038Z,37.38
2023-03-17T14:39:32.755Z,36.83
2023-03-17T14:42:25.848Z,36.99
2023-03-17T14:45:24.227Z,37.55
2023-03-17T14:48:14.475Z,38.33
2023-03-17T14:51:05.773Z,37.85
2023-03-17T14:53:52.766Z,36.58
2023-03-17T14:56:42.144Z,37.54
2023-03-17T14:59:35.228Z,37.42
2023-03-17T15:02:33.224Z,37.91
2023-03-17T15:05:41.942Z,37.89
2023-03-17T15:08:35.778Z,37.66
2023-03-17T15:11:24.977Z,37.66
2023-03-17T15:14:28.492Z,37.48
2023-03-17T15:17:30.726Z,38.06
2023-03-17T15:20:19.885Z,38.21
2023-03-17T15:23:14.733Z,37.52
2023-03-17T15:26:03.204Z,38.06
2023-03-17T15:28:48.720Z,38.38
2023-03-17T15:31:34.189Z,38.11
2023-03-17T15:34:19.898Z,38.20
2023-03-17T15:37:14.464Z,37.84
2023-03-17T15:40:01.678Z,38.31
2023-03-17T15:42:47.398Z,38.63
2023-03-17T15:45:32.968Z,38.69
2023-03-17T15:48:31.446Z,38.73
2023-03-17T15:51:17.372Z,39.20
2023-03-17T15:54:03.283Z,39.47
2023-03-17T15:56:50.935Z,39.27
2023-03-17T15:59:36.724Z,39.59
2023-03-17T16:02:22.229Z,38.66
2023-03-17T16:05:17.231Z,38.18
2023-03-17T16:08:03.440Z,38.70
2023-03-17T16:10:49.485Z,38.37
2023-03-17T16:13:34.866Z,40.16
2023-03-17T16:16:46.208Z,41.57
2023-03-17T16:19:32.563Z,42.83
2023-03-17T16:22:36.209Z,43.07
2023-03-17T16:25:28.407Z,43.60
2023-03-17T16:28:19.331Z,44.25
2023-03-17T16:31:24.277Z,44.96
2023-03-17T16:34:21.101Z,45.51
2023-03-17T16:37:14.632Z,45.75
2023-03-17T16:40:00.542Z,45.51
2023-03-17T16:42:47.455Z,45.41
2023-03-17T16:45:34.904Z,45.31
2023-03-17T16:48:20.419Z,45.41
2023-03-17T16:51:07.515Z,46.01
2023-03-17T16:53:53.112Z,45.33
2023-03-17T16:56:43.607Z,46.44
2023-03-17T16:59:31.477Z,46.93
2023-03-17T17:02:16.955Z,47.01
2023-03-17T17:05:03.123Z,46.92
2023-03-17T17:07:54.008Z,46.93
2023-03-17T17:10:41.423Z,47.82
2023-03-17T17:13:27.207Z,47.88
2023-03-17T17:16:34.811Z,47.73
2023-03-17T17:19:21.810Z,47.28
2023-03-17T17:22:07.459Z,48.61
2023-03-17T17:24:53.130Z,49.34
2023-03-17T17:27:41.788Z,49.44
2023-03-17T17:30:30.218Z,49.51
2023-03-17T17:33:17.970Z,49.77
2023-03-17T17:36:12.884Z,48.83
2023-03-17T17:38:59.573Z,47.35
2023-03-17T17:41:45.293Z,46.65
2023-03-17T17:44:32.675Z,45.83
2023-03-17T17:47:19.181Z,45.40
2023-03-17T17:50:06.961Z,44.43
2023-03-17T17:52:52.636Z,44.68
2023-03-17T17:55:44.084Z,44.07
2023-03-17T17:58:30.155Z,43.31
2023-03-17T18:01:19.793Z,43.49
2023-03-17T18:04:05.548Z,43.56
2023-03-17T18:06:51.386Z,43.28
2023-03-17T18:09:37.746Z,43.09
2023-03-17T18:12:23.242Z,43.54
2023-03-17T18:15:09.388Z,43.82
2023-03-17T18:17:55.390Z,43.80
2023-03-17T18:20:41.583Z,43.97
2023-03-17T18:23:28.074Z,44.30
2023-03-17T18:26:15.970Z,44.19
2023-03-17T18:29:01.698Z,44.51
2023-03-17T18:31:53.467Z,44.73
2023-03-17T18:34:47.918Z,44.86
2023-03-17T18:37:33.292Z,44.50
2023-03-17T18:40:19.466Z,46.56
2023-03-17T18:43:04.921Z,45.40
2023-03-17T18:45:50.389Z,45.27
2023-03-17T18:48:36.397Z,45.32
2023-03-17T18:51:22.249Z,44.97
2023-03-17T18:54:08.641Z,44.94
2023-03-17T18:56:55.765Z,45.41
2023-03-17T18:59:41.660Z,45.76
2023-03-17T19:02:27.433Z,46.55
2023-03-17T19:05:15.392Z,48.46
2023-03-17T19:08:01.003Z,48.96
2023-03-17T19:10:46.729Z,49.00
2023-03-17T19:13:32.297Z,49.28
2023-03-17T19:16:18.796Z,49.17
2023-03-17T19:19:04.388Z,49.48
2023-03-17T19:21:49.997Z,50.16
2023-03-17T19:24:37.564Z,50.83
2023-03-17T19:27:23.276Z,51.45
2023-03-17T19:30:10.248Z,51.22
2023-03-17T19:32:56.180Z,51.77
2023-03-17T19:35:44.404Z,51.93
2023-03-17T19:38:31.028Z,52.03
2023-03-17T19:41:16.481Z,51.97
2023-03-17T19:44:03.398Z,52.23
2023-03-17T19:46:49.244Z,52.35
2023-03-17T19:49:36.735Z,52.82
2023-03-17T19:52:22.085Z,52.81
2023-03-17T19:55:08.426Z,52.99
2023-03-17T19:57:53.927Z,53.46
2023-03-17T20:00:41.498Z,54.14
2023-03-17T20:03:27.239Z,53.63
2023-03-17T20:06:13.426Z,53.74
2023-03-17T20:08:58.512Z,54.28
2023-03-17T20:11:43.994Z,55.27
2023-03-17T20:14:29.505Z,55.12
2023-03-17T20:17:15.487Z,55.52
2023-03-17T20:20:01.382Z,56.18
2023-03-17T20:22:47.498Z,56.18
2023-03-17T20:25:33.302Z,56.83
2023-03-17T20:28:21.731Z,57.79
2023-03-17T20:31:08.074Z,57.66
2023-03-17T20:33:53.790Z,57.26
2023-03-17T20:36:42.359Z,57.29
2023-03-17T20:39:28.750Z,57.76
2023-03-17T20:42:14.827Z,57.56
2023-03-17T20:45:00.743Z,57.27
2023-03-17T20:47:47.339Z,57.74
2023-03-17T20:50:34.536Z,57.79
2023-03-17T20:53:20.129Z,57.56
2023-03-17T20:56:06.370Z,58.02
2023-03-17T20:58:53.341Z,58.11
2023-03-17T21:01:40.318Z,58.14
2023-03-17T21:04:26.049Z,58.95
2023-03-17T21:07:11.483Z,58.54
2023-03-17T21:09:57.032Z,58.97
2023-03-17T21:12:43.606Z,59.56
2023-03-17T21:15:29.549Z,59.80
2023-03-17T21:18:15.015Z,59.76
2023-03-17T21:21:00.789Z,59.39
2023-03-17T21:23:46.388Z,59.23
2023-03-17T21:26:32.514Z,58.64
2023-03-17T21:29:18.327Z,58.55
2023-03-17T21:32:05.353Z,59.14
2023-03-17T21:34:50.833Z,59.25
2023-03-17T21:37:36.293Z,59.76
2023-03-17T21:40:22.747Z,60.18
2023-03-17T21:43:07.969Z,60.70
2023-03-17T21:45:53.535Z,60.72
2023-03-17T21:48:38.959Z,61.03
2023-03-17T21:51:25.663Z,60.75
2023-03-17T21:54:11.635Z,61.18
2023-03-17T21:56:57.335Z,60.73
2023-03-17T21:59:42.773Z,60.54
2023-03-17T22:02:28.408Z,60.16
2023-03-17T22:05:13.832Z,60.55
2023-03-17T22:07:59.533Z,60.25
2023-03-17T22:10:45.073Z,60.00
2023-03-17T22:13:30.465Z,60.29
2023-03-17T22:16:17.226Z,59.89
2023-03-17T22:19:03.583Z,60.45
2023-03-17T22:21:50.379Z,60.72
2023-03-17T22:24:37.821Z,61.33
2023-03-17T22:27:23.598Z,61.19
2023-03-17T22:30:10.942Z,61.83
2023-03-17T22:32:56.536Z,61.04
2023-03-17T22:35:42.236Z,61.20
2023-03-17T22:38:27.740Z,60.60
2023-03-17T22:41:16.615Z,60.64
2023-03-17T22:44:02.535Z,60.62
2023-03-17T22:46:47.720Z,61.13
2023-03-17T22:49:33.194Z,60.87
2023-03-17T22:52:19.016Z,61.03
2023-03-17T22:55:05.133Z,61.26
2023-03-17T22:57:50.790Z,61.60
2023-03-17T23:00:36.492Z,61.62
2023-03-17T23:03:24.008Z,61.84
2023-03-17T23:06:10.066Z,61.88
2023-03-17T23:08:56.227Z,61.48
2023-03-17T23:11:42.778Z,61.53
2023-03-17T23:14:29.203Z,61.31
2023-03-17T23:17:14.945Z,61.14
2023-03-17T23:20:00.629Z,61.53
2023-03-17T23:22:46.139Z,61.72
2023-03-17T23:25:31.762Z,62.04
2023-03-17T23:28:17.325Z,62.62
2023-03-17T23:31:03.842Z,62.98
2023-03-17T23:33:51.333Z,63.82
2023-03-17T23:36:40.366Z,63.70
2023-03-17T23:39:26.399Z,64.31
2023-03-17T23:42:12.387Z,63.86
2023-03-17T23:44:58.471Z,64.34
2023-03-17T23:47:45.994Z,65.12
2023-03-17T23:50:32.166Z,64.71
2023-03-17T23:53:17.929Z,64.50
2023-03-17T23:56:03.908Z,64.50
2023-03-17T23:58:50.005Z,64.18
